createdAt,value
2018-12-24T00:00:11.172Z,46.20
2018-12-24T00:02:52.352Z,46.20
2018-12-24T00:05:33.425Z,46.10
2018-12-24T00:08:14.540Z,46.20
2018-12-24T00:10:55.578Z,46.00
2018-12-24T00:13:36.388Z,46.30
2018-12-24T00:16:17.505Z,46.00
2018-12-24T00:18:58.868Z,45.70
2018-12-24T00:21:39.464Z,46.30
2018-12-24T00:24:20.216Z,46.30
2018-12-24T00:27:01.281Z,46.00
2018-12-24T00:29:42.546Z,46.30
2018-12-24T00:32:23.705Z,46.10
2018-12-24T00:35:04.247Z,46.30
2018-12-24T00:37:45.635Z,46.40
2018-12-24T00:40:26.060Z,46.20
2018-12-24T00:43:06.733Z,46.20
2018-12-24T00:45:47.678Z,46.30
2018-12-24T00:48:28.297Z,46.30
2018-12-24T00:51:09.156Z,46.30
2018-12-24T00:53:50.305Z,46.10
2018-12-24T00:56:30.980Z,46.00
2018-12-24T00:59:11.652Z,46.40
2018-12-24T01:01:52.357Z,46.40
2018-12-24T01:04:33.161Z,46.30
2018-12-24T01:07:13.309Z,46.10
2018-12-24T01:09:54.271Z,46.20
2018-12-24T01:12:35.177Z,46.10
2018-12-24T01:15:16.308Z,46.20
2018-12-24T01:17:56.985Z,46.20
2018-12-24T01:20:38.271Z,46.10
2018-12-24T01:23:19.222Z,46.10
2018-12-24T01:25:59.609Z,46.20
2018-12-24T01:28:40.348Z,45.90
2018-12-24T01:31:21.447Z,45.70
2018-12-24T01:34:02.190Z,45.70
2018-12-24T01:36:43.335Z,46.00
2018-12-24T01:39:24.363Z,46.00
2018-12-24T01:42:05.058Z,46.00
2018-12-24T01:44:45.806Z,46.20
2018-12-24T01:47:26.836Z,46.10
2018-12-24T01:50:07.676Z,45.70
2018-12-24T01:52:48.260Z,46.10
2018-12-24T01:55:29.198Z,46.10
2018-12-24T01:58:09.981Z,46.20
2018-12-24T02:00:50.742Z,46.30
2018-12-24T02:03:31.693Z,46.30
2018-12-24T02:06:12.606Z,46.30
2018-12-24T02:08:53.473Z,45.80
2018-12-24T02:11:34.037Z,46.30
2018-12-24T02:14:14.652Z,46.30
2018-12-24T02:16:55.592Z,46.30
2018-12-24T02:19:36.224Z,45.90
2018-12-24T02:22:16.933Z,46.30
2018-12-24T02:24:58.017Z,46.30
2018-12-24T02:27:39.198Z,46.30
2018-12-24T02:30:20.272Z,46.30
2018-12-24T02:33:01.233Z,46.30
2018-12-24T02:35:41.983Z,46.30
2018-12-24T02:38:22.686Z,46.10
2018-12-24T02:41:03.614Z,46.30
2018-12-24T02:43:44.621Z,46.30
2018-12-24T02:46:24.768Z,46.20
2018-12-24T02:49:05.973Z,46.20
2018-12-24T02:51:47.020Z,46.30
2018-12-24T02:54:27.698Z,46.20
2018-12-24T02:57:08.466Z,46.20
2018-12-24T02:59:48.838Z,46.10
2018-12-24T03:02:29.662Z,46.00
2018-12-24T03:05:10.765Z,46.20
2018-12-24T03:07:51.991Z,45.70
2018-12-24T03:10:32.946Z,46.20
2018-12-24T03:13:13.254Z,46.20
2018-12-24T03:15:54.325Z,46.20
2018-12-24T03:18:34.541Z,46.10
2018-12-24T03:21:15.129Z,46.10
2018-12-24T03:23:55.888Z,45.90
2018-12-24T03:26:36.594Z,46.10
2018-12-24T03:29:17.745Z,46.00
2018-12-24T03:31:58.643Z,46.10
2018-12-24T03:34:39.749Z,46.10
2018-12-24T03:37:20.601Z,46.20
2018-12-24T03:40:01.948Z,46.20
2018-12-24T03:42:42.703Z,46.20
2018-12-24T03:45:22.925Z,46.00
2018-12-24T03:48:04.175Z,46.20
2018-12-24T03:50:45.177Z,46.20
2018-12-24T03:53:25.485Z,46.20
2018-12-24T03:56:06.389Z,46.20
2018-12-24T03:58:47.000Z,46.20
2018-12-24T04:01:27.656Z,46.10
2018-12-24T04:04:08.220Z,46.20
2018-12-24T04:06:49.165Z,45.80
2018-12-24T04:09:30.247Z,46.20
2018-12-24T04:12:10.518Z,45.70
2018-12-24T04:14:51.121Z,46.20
2018-12-24T04:17:31.980Z,46.20
2018-12-24T04:20:13.146Z,46.00
2018-12-24T04:22:53.789Z,46.00
2018-12-24T04:25:36.076Z,46.20
2018-12-24T04:28:16.433Z,46.20
2018-12-24T04:30:56.616Z,46.20
2018-12-24T04:33:37.254Z,46.20
2018-12-24T04:36:18.275Z,46.20
2018-12-24T04:38:59.635Z,46.20
2018-12-24T04:41:40.657Z,46.20
2018-12-24T04:44:21.272Z,46.20
2018-12-24T04:47:02.460Z,46.20
2018-12-24T04:49:43.353Z,46.20
2018-12-24T04:52:24.138Z,46.20
2018-12-24T04:55:05.001Z,46.10
2018-12-24T04:57:46.140Z,46.10
2018-12-24T05:00:27.365Z,46.10
2018-12-24T05:03:08.302Z,46.20
2018-12-24T05:05:49.373Z,46.10
2018-12-24T05:08:30.285Z,46.20
2018-12-24T05:11:11.160Z,46.10
2018-12-24T05:13:52.013Z,46.10
2018-12-24T05:16:33.168Z,46.10
2018-12-24T05:19:14.154Z,45.90
2018-12-24T05:21:55.169Z,46.10
2018-12-24T05:24:36.313Z,46.10
2018-12-24T05:27:17.285Z,45.80
2018-12-24T05:29:58.112Z,46.00
2018-12-24T05:32:39.033Z,46.00
2018-12-24T05:35:20.071Z,45.90
2018-12-24T05:38:00.289Z,46.10
2018-12-24T05:40:41.273Z,45.60
2018-12-24T05:43:22.341Z,46.10
2018-12-24T05:46:02.773Z,46.00
2018-12-24T05:48:43.776Z,46.10
2018-12-24T05:51:24.618Z,46.10
2018-12-24T05:54:04.876Z,46.10
2018-12-24T05:56:45.081Z,46.10
2018-12-24T05:59:25.309Z,46.20
2018-12-24T06:02:06.275Z,46.00
2018-12-24T06:04:47.513Z,46.20
2018-12-24T06:07:28.223Z,46.30
2018-12-24T06:10:09.276Z,45.70
2018-12-24T06:12:50.108Z,46.30
2018-12-24T06:15:30.897Z,46.20
2018-12-24T06:18:11.773Z,45.70
2018-12-24T06:20:52.776Z,46.20
2018-12-24T06:23:32.936Z,46.10
2018-12-24T06:26:14.007Z,46.20
2018-12-24T06:28:55.255Z,46.20
2018-12-24T06:31:36.012Z,46.20
2018-12-24T06:34:17.072Z,46.20
2018-12-24T06:36:57.796Z,46.00
2018-12-24T06:39:38.693Z,46.20
2018-12-24T06:42:19.552Z,46.20
2018-12-24T06:45:00.529Z,46.70
2018-12-24T06:47:41.308Z,46.20
2018-12-24T06:50:22.045Z,46.10
2018-12-24T06:53:03.353Z,46.20
2018-12-24T06:55:44.120Z,46.20
2018-12-24T06:58:24.694Z,46.30
2018-12-24T07:01:05.546Z,46.20
2018-12-24T07:03:46.609Z,46.20
2018-12-24T07:06:27.674Z,46.20
2018-12-24T07:09:08.308Z,46.30
2018-12-24T07:11:48.921Z,46.20
2018-12-24T07:14:29.856Z,46.10
2018-12-24T07:17:10.666Z,46.20
2018-12-24T07:19:51.548Z,46.20
2018-12-24T07:22:32.540Z,46.20
2018-12-24T07:25:13.180Z,46.20
2018-12-24T07:27:53.897Z,46.20
2018-12-24T07:30:35.012Z,46.20
2018-12-24T07:33:16.274Z,45.90
2018-12-24T07:35:56.544Z,46.20
2018-12-24T07:38:36.875Z,46.10
2018-12-24T07:41:17.140Z,45.70
2018-12-24T07:43:58.153Z,45.90
2018-12-24T07:46:40.923Z,46.00
2018-12-24T07:49:21.928Z,46.20
2018-12-24T07:52:02.349Z,46.10
2018-12-24T07:54:43.008Z,45.50
2018-12-24T07:57:23.728Z,46.20
2018-12-24T08:00:03.877Z,46.10
2018-12-24T08:02:44.850Z,46.10
2018-12-24T08:05:25.925Z,45.70
2018-12-24T08:08:06.684Z,45.60
2018-12-24T08:10:47.673Z,46.00
2018-12-24T08:13:28.565Z,46.00
2018-12-24T08:16:09.537Z,46.00
2018-12-24T08:18:50.641Z,46.00
2018-12-24T08:21:31.117Z,46.00
2018-12-24T08:24:12.261Z,45.80
2018-12-24T08:26:53.825Z,46.00
2018-12-24T08:29:34.899Z,45.90
2018-12-24T08:32:15.709Z,46.00
2018-12-24T08:34:56.356Z,45.70
2018-12-24T08:37:36.902Z,45.50
2018-12-24T08:40:17.904Z,46.00
2018-12-24T08:42:58.776Z,45.90
2018-12-24T08:45:40.508Z,45.50
2018-12-24T08:48:21.524Z,45.50
2018-12-24T08:51:02.348Z,45.90
2018-12-24T08:53:43.030Z,45.90
2018-12-24T08:56:23.575Z,45.90
2018-12-24T08:59:04.369Z,45.60
2018-12-24T09:01:44.681Z,46.00
2018-12-24T09:04:25.045Z,45.70
2018-12-24T09:07:05.322Z,45.90
2018-12-24T09:09:46.209Z,45.80
2018-12-24T09:12:27.526Z,45.90
2018-12-24T09:15:08.112Z,45.70
2018-12-24T09:17:48.878Z,45.80
2018-12-24T09:20:27.545Z,45.50
2018-12-24T09:23:15.229Z,45.90
2018-12-24T09:26:02.884Z,46.40
2018-12-24T09:28:50.562Z,46.00
2018-12-24T09:31:38.228Z,46.00
2018-12-24T09:34:25.896Z,45.70
2018-12-24T09:37:13.549Z,46.00
2018-12-24T09:40:01.228Z,45.50
2018-12-24T09:42:48.882Z,45.50
2018-12-24T09:45:36.637Z,45.90
2018-12-24T09:48:24.293Z,45.90
2018-12-24T09:51:11.960Z,45.70
2018-12-24T09:53:59.615Z,45.80
2018-12-24T09:56:47.294Z,45.90
2018-12-24T09:59:34.940Z,46.00
2018-12-24T10:02:43.437Z,45.70
2018-12-24T10:05:31.092Z,45.40
2018-12-24T10:08:18.831Z,45.80
2018-12-24T10:11:06.510Z,45.90
2018-12-24T10:13:46.892Z,45.80
2018-12-24T10:16:27.837Z,45.40
2018-12-24T10:19:08.323Z,45.60
2018-12-24T10:21:49.201Z,45.50
2018-12-24T10:24:27.837Z,45.70
2018-12-24T10:27:15.516Z,45.80
2018-12-24T10:30:03.200Z,45.70
2018-12-24T10:32:51.140Z,45.80
2018-12-24T10:35:39.779Z,45.80
2018-12-24T10:38:28.192Z,45.80
2018-12-24T10:41:09.155Z,45.80
2018-12-24T10:43:50.315Z,45.80
2018-12-24T10:46:30.754Z,45.80
2018-12-24T10:49:11.409Z,45.40
2018-12-24T10:51:52.436Z,45.80
2018-12-24T10:54:33.418Z,45.70
2018-12-24T10:57:14.662Z,45.80
2018-12-24T10:59:55.176Z,45.80
2018-12-24T11:02:35.903Z,45.70
2018-12-24T11:05:17.093Z,45.20
2018-12-24T11:07:57.880Z,45.30
2018-12-24T11:10:38.948Z,45.70
2018-12-24T11:13:19.946Z,44.90
2018-12-24T11:16:00.209Z,45.70
2018-12-24T11:18:41.177Z,45.50
2018-12-24T11:21:21.993Z,45.20
2018-12-24T11:24:02.882Z,45.50
2018-12-24T11:26:44.201Z,45.80
2018-12-24T11:29:25.195Z,45.80
2018-12-24T11:32:05.933Z,45.60
2018-12-24T11:34:46.960Z,45.50
2018-12-24T11:37:27.992Z,45.70
2018-12-24T11:40:08.548Z,45.80
2018-12-24T11:42:49.409Z,45.60
2018-12-24T11:45:33.737Z,45.80
2018-12-24T11:48:12.774Z,45.80
2018-12-24T11:50:53.828Z,45.70
2018-12-24T11:53:34.872Z,45.80
2018-12-24T11:56:15.665Z,45.70
2018-12-24T11:58:55.984Z,45.60
2018-12-24T12:01:37.112Z,45.70
2018-12-24T12:04:18.002Z,45.30
2018-12-24T12:06:58.201Z,45.70
2018-12-24T12:09:39.024Z,45.70
2018-12-24T12:12:19.871Z,45.50
2018-12-24T12:15:00.569Z,45.30
2018-12-24T12:20:23.929Z,45.80
2018-12-24T12:23:04.208Z,45.60
2018-12-24T12:25:45.037Z,45.50
2018-12-24T12:28:25.288Z,45.60
2018-12-24T12:31:06.233Z,45.10
2018-12-24T12:36:29.244Z,45.20
2018-12-24T12:39:09.964Z,44.80
2018-12-24T12:41:51.092Z,45.00
2018-12-24T12:44:31.880Z,45.00
2018-12-24T12:49:54.767Z,40.90
2018-12-24T12:52:35.536Z,40.00
2018-12-24T12:55:15.724Z,39.20
2018-12-24T12:57:56.628Z,40.10
2018-12-24T13:00:37.530Z,41.00
2018-12-24T13:03:18.606Z,41.90
2018-12-24T13:05:59.021Z,42.70
2018-12-24T13:08:40.014Z,43.00
2018-12-24T13:11:20.958Z,43.30
2018-12-24T13:14:01.801Z,43.40
2018-12-24T13:16:42.497Z,43.90
2018-12-24T13:19:23.865Z,44.10
2018-12-24T13:22:04.718Z,44.10
2018-12-24T13:24:45.170Z,44.30
2018-12-24T13:27:26.240Z,44.40
2018-12-24T13:30:06.737Z,44.60
2018-12-24T13:32:47.604Z,44.50
2018-12-24T13:35:28.276Z,44.30
2018-12-24T13:38:09.419Z,44.80
2018-12-24T13:40:50.417Z,44.70
2018-12-24T13:43:31.367Z,44.90
2018-12-24T13:46:12.476Z,44.90
2018-12-24T13:48:53.193Z,45.00
2018-12-24T13:51:34.288Z,44.70
2018-12-24T13:54:15.682Z,45.00
2018-12-24T13:56:56.289Z,45.10
2018-12-24T13:59:36.444Z,44.70
2018-12-24T14:02:17.415Z,45.10
2018-12-24T14:04:58.189Z,45.10
2018-12-24T14:07:38.683Z,45.20
2018-12-24T14:10:19.685Z,45.10
2018-12-24T14:13:00.229Z,44.80
2018-12-24T14:15:41.001Z,45.00
2018-12-24T14:18:21.252Z,44.60
2018-12-24T14:21:01.932Z,44.80
2018-12-24T14:23:42.759Z,44.60
2018-12-24T14:26:23.734Z,44.90
2018-12-24T14:29:04.604Z,45.00
2018-12-24T14:31:45.218Z,44.90
2018-12-24T14:34:26.306Z,45.10
2018-12-24T14:37:07.297Z,45.10
2018-12-24T14:39:48.206Z,45.10
2018-12-24T14:42:29.304Z,45.10
2018-12-24T14:45:10.244Z,44.80
2018-12-24T14:47:51.513Z,44.90
2018-12-24T14:50:32.594Z,44.80
2018-12-24T14:53:13.716Z,45.00
2018-12-24T14:55:54.148Z,45.10
2018-12-24T14:58:35.350Z,44.90
2018-12-24T15:01:16.052Z,44.90
2018-12-24T15:03:57.038Z,45.10
2018-12-24T15:06:37.380Z,45.20
2018-12-24T15:09:18.278Z,45.20
2018-12-24T15:11:59.144Z,44.90
2018-12-24T15:14:40.213Z,45.30
2018-12-24T15:20:40.213Z,45.30
2018-12-24T15:23:21.372Z,45.00
2018-12-24T15:26:02.102Z,45.10
2018-12-24T15:28:42.876Z,45.20
2018-12-24T15:31:21.757Z,45.30
2018-12-24T15:34:09.407Z,45.30
2018-12-24T15:37:04.653Z,44.70
2018-12-24T15:39:52.349Z,45.10
2018-12-24T15:42:40.002Z,45.20
2018-12-24T15:45:27.677Z,45.20
2018-12-24T15:48:15.356Z,45.10
2018-12-24T15:51:03.004Z,44.90
2018-12-24T15:53:50.688Z,45.00
2018-12-24T15:56:38.368Z,45.10
2018-12-24T15:59:26.057Z,45.00
2018-12-24T16:02:13.952Z,45.00
2018-12-24T16:05:01.658Z,45.00
2018-12-24T16:07:49.347Z,45.00
2018-12-24T16:10:37.360Z,45.00
2018-12-24T16:13:25.089Z,44.60
2018-12-24T16:16:05.463Z,44.70
2018-12-24T16:18:46.210Z,44.80
2018-12-24T16:21:24.785Z,44.80
2018-12-24T16:24:12.461Z,45.00
2018-12-24T16:27:00.116Z,45.00
2018-12-24T16:32:46.538Z,44.60
2018-12-24T16:35:34.372Z,45.10
2018-12-24T16:38:22.024Z,44.90
2018-12-24T16:41:09.700Z,44.80
2018-12-24T16:43:57.593Z,44.70
2018-12-24T16:46:45.265Z,45.20
2018-12-24T16:49:33.156Z,45.20
2018-12-24T16:52:20.837Z,45.20
2018-12-24T16:55:08.491Z,45.10
2018-12-24T16:57:56.400Z,45.20
2018-12-24T17:00:37.229Z,44.90
2018-12-24T17:03:18.372Z,45.20
2018-12-24T17:05:58.496Z,45.10
2018-12-24T17:08:39.085Z,45.00
2018-12-24T17:11:20.065Z,45.20
2018-12-24T17:13:58.744Z,45.00
2018-12-24T17:16:46.421Z,45.30
2018-12-24T17:19:34.105Z,45.30
2018-12-24T17:22:21.797Z,45.00
2018-12-24T17:25:09.776Z,45.20
2018-12-24T17:27:57.432Z,45.20
2018-12-24T17:30:45.456Z,45.30
2018-12-24T17:33:33.133Z,45.30
2018-12-24T17:36:20.804Z,45.30
2018-12-24T17:39:08.472Z,45.10
2018-12-24T17:41:48.804Z,45.20
2018-12-24T17:44:29.148Z,45.20
2018-12-24T17:47:16.190Z,45.20
2018-12-24T17:49:52.264Z,45.30
2018-12-24T17:52:33.642Z,45.10
2018-12-24T17:55:14.469Z,45.30
2018-12-24T17:57:55.415Z,45.30
2018-12-24T18:00:36.388Z,44.80
2018-12-24T18:03:17.333Z,45.10
2018-12-24T18:05:58.338Z,45.10
2018-12-24T18:08:38.981Z,45.30
2018-12-24T18:11:19.632Z,45.10
2018-12-24T18:14:00.585Z,45.30
2018-12-24T18:16:41.667Z,45.30
2018-12-24T18:19:22.679Z,45.30
2018-12-24T18:22:03.742Z,45.30
2018-12-24T18:24:44.373Z,45.30
2018-12-24T18:27:25.576Z,45.30
2018-12-24T18:30:06.701Z,45.30
2018-12-24T18:32:47.752Z,45.30
2018-12-24T18:38:33.397Z,45.00
2018-12-24T18:41:14.089Z,45.30
2018-12-24T18:47:03.558Z,45.30
2018-12-24T18:49:44.044Z,45.20
2018-12-24T18:52:43.994Z,45.20
2018-12-24T18:55:25.053Z,45.40
2018-12-24T18:58:05.905Z,45.40
2018-12-24T19:00:46.700Z,45.40
2018-12-24T19:03:26.932Z,45.40
2018-12-24T19:06:07.948Z,45.40
2018-12-24T19:12:13.413Z,45.40
2018-12-24T19:17:58.401Z,45.30
2018-12-24T19:20:39.467Z,45.20
2018-12-24T19:23:20.401Z,45.40
2018-12-24T19:26:01.413Z,45.40
2018-12-24T19:31:47.445Z,45.40
2018-12-24T19:34:28.366Z,45.50
2018-12-24T19:37:09.460Z,45.50
2018-12-24T19:39:50.108Z,45.50
2018-12-24T19:42:31.039Z,45.50
2018-12-24T19:48:17.060Z,45.50
2018-12-24T19:50:57.785Z,45.40
2018-12-24T19:53:37.976Z,45.50
2018-12-24T19:56:18.916Z,45.50
2018-12-24T19:58:59.869Z,45.60
2018-12-24T20:01:40.790Z,45.60
2018-12-24T20:04:44.152Z,45.40
2018-12-24T20:07:43.948Z,45.60
2018-12-24T20:13:32.865Z,45.50
2018-12-24T20:16:13.579Z,45.10
2018-12-24T20:18:54.705Z,45.60
2018-12-24T20:21:35.464Z,45.40
2018-12-24T20:27:24.764Z,45.60
2018-12-24T20:33:24.435Z,45.60
2018-12-24T20:36:04.955Z,44.90
2018-12-24T20:38:45.628Z,45.60
2018-12-24T20:41:26.477Z,45.20
2018-12-24T20:44:07.325Z,45.70
2018-12-24T20:46:48.334Z,45.50
2018-12-24T20:49:29.253Z,45.60
2018-12-24T20:52:09.617Z,45.60
2018-12-24T20:54:50.032Z,45.60
2018-12-24T20:57:31.099Z,45.30
2018-12-24T21:00:11.886Z,45.60
2018-12-24T21:02:52.544Z,45.50
2018-12-24T21:05:33.379Z,45.60
2018-12-24T21:08:14.507Z,45.60
2018-12-24T21:10:55.533Z,45.60
2018-12-24T21:13:36.367Z,45.40
2018-12-24T21:16:16.988Z,45.60
2018-12-24T21:18:57.976Z,45.60
2018-12-24T21:21:39.038Z,45.60
2018-12-24T21:24:38.618Z,45.70
2018-12-24T21:27:19.144Z,45.60
2018-12-24T21:30:00.163Z,45.70
2018-12-24T21:32:40.812Z,45.70
2018-12-24T21:35:22.162Z,45.80
2018-12-24T21:38:02.752Z,45.70
2018-12-24T21:40:43.104Z,45.70
2018-12-24T21:43:24.299Z,45.70
2018-12-24T21:46:05.397Z,45.70
2018-12-24T21:48:46.000Z,45.70
2018-12-24T21:51:26.852Z,45.60
2018-12-24T21:54:08.096Z,45.60
2018-12-24T21:59:53.364Z,45.60
2018-12-24T22:02:34.765Z,45.50
2018-12-24T22:05:34.734Z,46.20
2018-12-24T22:08:15.000Z,45.50
2018-12-24T22:10:55.902Z,45.40
2018-12-24T22:16:55.581Z,45.70
2018-12-24T22:19:36.646Z,45.50
2018-12-24T22:22:17.549Z,45.60
2018-12-24T22:24:58.040Z,45.70
2018-12-24T22:30:57.360Z,45.60
2018-12-24T22:33:38.165Z,45.20
2018-12-24T22:36:19.569Z,45.70
2018-12-24T22:39:00.080Z,45.60
2018-12-24T22:41:41.365Z,45.50
2018-12-24T22:44:22.490Z,45.70
2018-12-24T22:47:02.853Z,45.40
2018-12-24T22:49:43.091Z,45.70
2018-12-24T22:52:24.248Z,45.50
2018-12-24T22:55:05.352Z,45.70
2018-12-24T22:57:46.503Z,45.70
2018-12-24T23:00:28.708Z,45.80
2018-12-24T23:09:19.564Z,45.70
2018-12-24T23:15:09.052Z,45.30
2018-12-24T23:17:49.845Z,45.40
2018-12-24T23:20:31.003Z,45.70
2018-12-24T23:23:12.049Z,45.60
2018-12-24T23:25:53.128Z,45.50
2018-12-24T23:28:34.117Z,45.50
2018-12-24T23:31:15.286Z,45.50
2018-12-24T23:33:55.877Z,45.50
2018-12-24T23:36:36.716Z,45.40
2018-12-24T23:39:17.784Z,45.50
2018-12-24T23:41:58.492Z,45.30
2018-12-24T23:44:39.172Z,44.90
2018-12-24T23:47:19.404Z,45.00
2018-12-24T23:50:00.492Z,45.40
2018-12-24T23:52:41.153Z,45.40
2018-12-24T23:55:22.305Z,45.40
2018-12-24T23:58:02.516Z,45.40
